Andrew Palmer

Recruteur en chef - Sheffield United
21 Oct 2027
Jeudi
Processus

Personnalité

Adaptabilité (19) Ambition (12) Controverse (15) Loyauté (11) Pression (1) Professionnalisme (11) Sportivité (19) Tempérament (4)

Profil

Style d'entraînement Démocratique
Diplôme Continental B
Détermination 7
Gestion des joueurs 11
Motivation 13
Discipline 12
Satisfaction professionnelle
100%
Fatigue
0%
Rôle Recruteur en chef
Salaire 97.1K p/s
Contrat 14.03.2028

Performance

Comportement Bon
Efficacité de l'entraînement
38%
Développement des joueurs
20%
Prévention des blessures
45%
Mise en place tactique
50%

Événements récents

A évalué un joueur maintenant
A participé à une réunion de recrutement maintenant
A participé à une réunion de recrutement maintenant
A participé à une réunion de recrutement 7j
A évalué un joueur 7j
A évalué un joueur 7j
A évalué un joueur 7j
A évalué un joueur 7j

Suivi en cours

210
Joueur Club Statut Capacité Confiance Observé Dernière observation Dernier vote
Ayden Heaven Luton Town Actif 152 / 147 40% 5 20.10.2027 -
Agustín Obregón River Plate Actif 109 / 125 40% 2 20.10.2027 -
Lucas Bergvall Tottenham Actif 148 / 157 40% 4 19.10.2027 -
Jens Hjertø-Dahl Hull City Actif 123 / 129 40% 1 19.10.2027 -
Jovan Milosavljević Kalmar FF Actif 103 / 111 40% 3 18.10.2027 -
Leny Yoro Manchester United Actif 158 / 149 40% 2 18.10.2027 -
Alejandro Almaraz Nueva Chicago Actif 100 / 110 40% 1 17.10.2027 -
Felipe Obradovich Ferro Carril Oeste Actif 96 / 119 40% 1 17.10.2027 -
Chris Rigg Sunderland Actif 126 / 149 40% 2 16.10.2027 -
Frankie Westfield Philadelphia Union Actif 109 / 108 40% 2 16.10.2027 -
Trey Nyoni Rotherham United Actif 142 / 143 40% 1 11.10.2027 -
Tiago Parente Benfica Actif 117 / 108 40% 3 09.10.2027 -
Celías Ingenthron Vélez Actif 121 / 128 40% 1 09.10.2027 -
Olaniyi Saheed Kwara United Actif 76 / 99 40% 5 08.10.2027 -
Caleb Yirenkyi Coventry City Actif 150 / 155 40% 6 05.10.2027 -
Christos Mouzakitis Hull City Actif 146 / 142 40% 2 04.10.2027 -
Malick Yalcouyé Brighton Actif 136 / 129 40% 1 04.10.2027 -
Nicolas Sport Recife Actif 107 / 110 40% 1 18.09.2027 -
Josh Nichols Tranmere Rovers Actif 111 / 120 40% 1 17.09.2027 -
Matthew Litherland Rotherham United Actif 111 / 120 40% 1 17.09.2027 -
Juma Bah Manchester City Actif 130 / 124 40% 2 16.09.2027 -
Tobias Moi Bodo/Glimt Actif 85 / 118 40% 1 16.09.2027 -
Nazareno Roselli Defensa y Justicia Actif 124 / 114 40% 2 14.09.2027 -
Alexis Fretes Libertad Actif 103 / 106 40% 1 12.09.2027 -
Eliás Montiel Werder Bremen Actif 130 / 140 40% 2 10.09.2027 -
Joel Ezra Enyimba Actif 89 / 102 40% 1 09.09.2027 -
Julián Bazán Philadelphia Union Actif 121 / 120 40% 1 08.09.2027 -
Martín Jiménez Audax Italiano Actif 93 / 111 40% 1 08.09.2027 -
Axel Tape Bayer Leverkusen Actif 119 / 130 40% 1 07.09.2027 -
Mauro Carrizo Atlético Tucumán Actif 101 / 102 40% 1 06.09.2027 -
Kaick Minnesota United FC Actif 95 / 112 40% 1 05.09.2027 -
Honest Ahanor Atalanta Actif 127 / 143 40% 2 04.09.2027 -
Emiliano Bértoli Patronato Actif 93 / 106 40% 1 03.09.2027 -
Harry Mills Maritimo Actif 93 / 98 40% 1 02.09.2027 -
Mikkel Hope Haugesund Actif 79 / 89 40% 1 29.08.2027 -
Hugo Rojas Instituto Actif 102 / 103 40% 1 29.08.2027 -
Keimer Sandoval Deportivo Cali Actif 95 / 112 40% 2 27.08.2027 -
Veljko Milosavljević Aston Villa Actif 130 / 135 40% 1 27.08.2027 -
Baye Coulibaly Charlotte Football Club Actif 100 / 105 40% 2 25.08.2027 -
Ishé Samuels-Smith Chelsea Actif 107 / 127 40% 1 23.08.2027 -
Juan Morán Godoy Cruz Actif 96 / 106 40% 1 22.08.2027 -
Lucas Barrientos Los Andes Actif 100 / 98 40% 1 22.08.2027 -
Adam Bakoune Ospitaletto Actif 105 / 101 40% 3 19.08.2027 -
Edoardo Tartaglia Renate Actif 110 / 117 40% 2 19.08.2027 -
Aiden Hezarkhani Real Salt Lake Actif 105 / 102 40% 1 16.08.2027 -
Andrea Bertoncini Carpi Actif 87 / 101 40% 2 10.08.2027 -
Matías Gómez Granada Actif 104 / 125 40% 1 10.08.2027 -
Eddy Kouadio Crotone Actif 115 / 120 40% 3 07.08.2027 -
Jofre Torrents Ajax Actif 130 / 128 40% 3 06.08.2027 -
Ricky Atletico Venezuela Actif 88 / 101 40% 2 05.08.2027 -
Kazunari Kita Real Sociedad Actif 103 / 105 40% 2 04.08.2027 -
Daniel Costa Sporting CP Actif 95 / 109 40% 1 04.08.2027 -
Keagan Phiri Platinum Stars Actif 85 / 102 40% 2 03.08.2027 -
Lewis Miley Chelsea Actif 153 / 146 40% 3 02.08.2027 -
Simone Kosijer Triestina Actif 99 / 108 40% 1 02.08.2027 -
Jan Bürger Gillingham Actif 124 / 120 40% 3 29.07.2027 -
Tiago Freitas Benfica Actif 121 / 130 40% 1 29.07.2027 -
Daniel Kelly Oxford United Actif 101 / 118 40% 3 28.07.2027 -
Bernardo Lima Porto Actif 112 / 107 40% 1 28.07.2027 -
Finley McAllister Grimsby Town Actif 80 / 92 40% 1 27.07.2027 -
Matvey Kislyak CSKA Moscow Actif 122 / 157 40% 1 12.07.2027 -
Riley Owen Trento Actif 96 / 116 40% 1 10.07.2027 -
Juan Giménez Celta Actif 109 / 128 40% 1 07.07.2027 -
Keagan Tau Ajax Cape Town Actif 75 / 106 40% 1 19.06.2027 -
Gonçalo Oliveira Benfica Actif 102 / 116 40% 2 17.06.2027 -
Rivaldo Grobler Free State Stars Actif 98 / 117 40% 1 17.06.2027 -
Davide Bartesaghi AC Milan Actif 134 / 132 40% 2 14.06.2027 -
Joel McGregor Swindon Town Actif 87 / 102 40% 1 13.06.2027 -
Vasco Santos Oliveirense Actif 88 / 95 40% 1 11.06.2027 -
Zane Albarus Cambridge United Actif 89 / 109 40% 1 09.06.2027 -
Bitello SC Freiburg Négociation 135 / 135 68% 1 01.06.2027 -
Luiz Henrique West Ham United Négociation 142 / 143 68% 1 01.06.2027 -
Franculino Crystal Palace Négociation 136 / 140 67% 1 01.06.2027 -
Leandro Martins Benfica Actif 95 / 89 40% 1 01.06.2027 -
Reuben Reid Barnsley Actif 90 / 94 40% 2 30.05.2027 -
Ernie Weaver AFC Wimbledon Actif 110 / 108 40% 1 30.05.2027 -
Ibrahim Maza Bayer Leverkusen Actif 137 / 160 40% 1 30.05.2027 -
Chineme Chinonso Ikorodu City Actif 85 / 87 40% 6 29.05.2027 -
Iwan Morgan Grimsby Town Actif 115 / 116 40% 4 29.05.2027 -
Guille Rosas Gijón Actif 141 / 140 40% 1 29.05.2027 -
Adam Wharton Crystal Palace Actif 157 / 153 40% 4 28.05.2027 -
Tariq Lamptey Queens Park Rangers Actif 134 / 142 40% 1 28.05.2027 -
Ruben Ramos LA Galaxy Actif 95 / 109 40% 3 27.05.2027 -
Luca Mazzeo Potenza Actif 95 / 106 40% 1 27.05.2027 -
Yuval Ranon Vitesse Actif 101 / 90 40% 2 25.05.2027 -
Assane Diao Lazio Actif 140 / 144 40% 5 22.05.2027 -
Jordan Beyer Burnley Actif 150 / 128 40% 2 21.05.2027 -
Leo Castledine Middlesbrough Actif 135 / 126 40% 5 21.05.2027 -
Borna Knezović Casarano Actif 114 / 112 40% 2 21.05.2027 -
Toby Collyer West Bromwich Albion Actif 121 / 125 40% 1 21.05.2027 -
Paco Esteban Virtus Entella Actif 95 / 99 40% 2 19.05.2027 -
Luke Baartman ES Mostaganem Actif 121 / 120 40% 2 17.05.2027 -
Rayan Bournemouth Actif 147 / 131 40% 2 16.05.2027 -
Inti López River Plate Actif 89 / 105 40% 1 15.05.2027 -
Víctor Guzmán Sporting CP Actif 99 / 103 40% 2 14.05.2027 -
Angelos Neofytou Omonoia Actif 110 / 92 40% 2 14.05.2027 -
Juanlu Bournemouth Actif 143 / 148 40% 4 13.05.2027 -
Nicolás Azambuja Cádiz Actif 104 / 128 40% 1 13.05.2027 -
Ryan Sessegnon Fulham Actif 132 / 136 40% 7 12.05.2027 -
Ognjen Bondžulić Mladost Lucani Actif 104 / 109 40% 4 11.05.2027 -
Callum Doyle Wrexham Actif 143 / 130 40% 2 10.05.2027 -
Leif Davis Ipswich Town Actif 143 / 140 40% 1 10.05.2027 -
Amaury Morales Pumas UNAM Actif 115 / 113 40% 4 06.05.2027 -
Markus Jensen Nacional Actif 121 / 122 40% 2 06.05.2027 -
Seymour Reid New York City Actif 105 / 105 40% 1 05.05.2027 -
Habib Diarra Sunderland Actif 129 / 146 40% 2 04.05.2027 -
Maren Kefas Plateau United Actif 72 / 88 40% 3 04.05.2027 -
Oumar Solet Udinese Actif 134 / 138 40% 1 04.05.2027 -
Ben Ahmed Kohili Paradou Actif 120 / 111 40% 3 02.05.2027 -
Surprise Manthosi Polokwane City Actif 72 / 102 40% 1 28.04.2027 -
Sidiki Chérif Coventry City Actif 131 / 133 40% 3 26.04.2027 -
Adama Goïta Remo Stars Actif 88 / 110 40% 1 22.04.2027 -
Adrien Truffert Bournemouth Actif 154 / 141 40% 3 19.04.2027 -
Lewis Ferguson Bologna Actif 130 / 133 40% 1 15.04.2027 -
Baylee Dipepa Norwich City Actif 116 / 100 40% 2 14.04.2027 -
Edoardo Bove Watford Actif 122 / 135 40% 3 12.04.2027 -
Mateus Mané Manchester United Actif 128 / 148 40% 2 12.04.2027 -
Thomas Waddingham Portsmouth Actif 92 / 105 40% 2 12.04.2027 -
Will Lankshear Middlesbrough Actif 124 / 130 40% 5 10.04.2027 -
Nadir Zortea Bologna Actif 149 / 129 40% 2 07.04.2027 -
Max Bird Birmingham Actif 126 / 141 40% 1 07.04.2027 -
Joseph Arumala Ikorodu City Actif 101 / 104 40% 2 05.04.2027 -
Lwanda Mbanjwa Maritzburg United Actif 73 / 87 40% 1 02.04.2027 -
Josh Doig Sassuolo Actif 125 / 131 40% 1 02.04.2027 -
Anestis Mythou PAOK Actif 75 / 117 40% 4 29.03.2027 -
Keane Lewis-Potter Brentford Actif 154 / 142 40% 1 28.03.2027 -
David Kalokoh Ajax Actif 122 / 129 40% 1 27.03.2027 -
Jacob Greaves Ipswich Town Actif 136 / 134 40% 2 24.03.2027 -
Luke McNally Bristol City Actif 121 / 124 40% 2 24.03.2027 -
Welington Southampton Actif 140 / 132 40% 2 23.03.2027 -
Noah Sadiki Sunderland Actif 142 / 149 40% 2 20.03.2027 -
Lorenzo De Leo Renate Actif 91 / 109 40% 5 19.03.2027 -
Ethan Galbraith Swansea City Actif 128 / 123 40% 1 15.03.2027 -
Aaron Hickey Brentford Actif 140 / 138 40% 5 11.03.2027 -
Milan van Ewijk Mansfield Town Actif 120 / 129 40% 2 11.03.2027 -
Dom Ballard Leyton Orient Actif 133 / 119 40% 2 20.02.2027 -
Rocco Vata Watford Actif 117 / 121 40% 1 08.02.2027 -
Shunsuke Saito Westerlo Actif 97 / 114 40% 1 05.02.2027 -
Dramane Kamagaté USM Alger Actif 108 / 123 40% 1 04.02.2027 -
Leon Grgić Sturm Graz Actif 124 / 134 40% 1 02.02.2027 -
Facundo Torres LOSC Lille Négociation 134 / 134 67% 1 18.01.2027 -
Amar Memić Casa Pia Négociation 127 / 128 62% 1 01.01.2027 -
Raúl Rangel Sporting CP Négociation 132 / 132 66% 1 01.01.2027 -
Derensili Sanches Fernandes Huddersfield Town Actif 112 / 134 40% 2 31.12.2026 -
Kevin Fulham Actif 157 / 161 40% 2 29.12.2026 -
Jack McGlynn Stoke City Actif 117 / 125 40% 1 29.12.2026 -
Finn Azaz Southampton Actif 131 / 117 40% 1 27.12.2026 -
Georginio Rutter Brighton Actif 154 / 136 40% 3 26.12.2026 -
Matt O'Riley Brighton Actif 142 / 151 40% 4 26.12.2026 -
Nicolás Fernández Mercau Shakhtar Actif 130 / 152 40% 2 25.12.2026 -
Mikkel Damsgaard Brentford Actif 137 / 153 40% 1 25.12.2026 -
Tom Fellows Southampton Actif 144 / 127 40% 4 24.12.2026 -
Callum Hudson-Odoi Nottingham Forest Actif 160 / 155 40% 2 24.12.2026 -
Othmane Maamma Watford Actif 132 / 130 40% 1 23.12.2026 -
Giacomo Raspadori Atalanta Actif 148 / 148 40% 1 22.12.2026 -
Petar Stanić Ludogorets Actif 141 / 139 40% 1 22.12.2026 -
Reda Khadra Qarabag Actif 138 / 123 40% 2 19.12.2026 -
Amine Adli Bournemouth Actif 153 / 154 40% 1 19.12.2026 -
Jack Rudoni Coventry City Actif 133 / 131 40% 1 17.12.2026 -
Ousmane Diomande Nottingham Forest Actif 159 / 162 40% 1 17.12.2026 -
Rodrigo Gomes Wolverhampton Actif 152 / 144 40% 1 13.12.2026 -
Wilson Isidor Sunderland Actif 147 / 143 40% 1 13.12.2026 -
Jadon Sancho Manchester United Actif 152 / 145 40% 2 11.12.2026 -
Bryan Ramírez FC Cincinnati Actif 133 / 128 40% 4 07.12.2026 -
Florentino Luís Ipswich Town Actif 126 / 146 40% 2 04.12.2026 -
Santiago Rodríguez Columbus Crew Actif 137 / 130 40% 2 01.12.2026 -
Tyler Adams Bournemouth Actif 139 / 164 40% 2 26.11.2026 -
Yan Diomandé Real Madrid Actif 143 / 144 40% 1 25.11.2026 -
Óscar Mingueza Crystal Palace Actif 164 / 161 40% 3 24.11.2026 -
Yehor Yarmoliuk Brentford Actif 141 / 160 40% 1 23.11.2026 -
Quinten Timber Crystal Palace Actif 137 / 162 40% 2 20.11.2026 -
Yeremy Pino Crystal Palace Actif 134 / 156 40% 1 20.11.2026 -
Iván Angulo Orlando City Actif 130 / 125 40% 1 17.11.2026 -
Oliver Skipp Leicester City Actif 120 / 122 40% 1 12.11.2026 -
Elias Achouri San Diego Football Club Actif 127 / 141 40% 3 10.11.2026 -
Amin Boudri Los Angeles Football Club Actif 122 / 135 40% 2 09.11.2026 -
Tomás Chancalay Minnesota United FC Actif 116 / 135 40% 2 09.11.2026 -
Joaquín Pereyra Minnesota United FC Actif 131 / 123 40% 4 08.11.2026 -
Kelvin Yeboah Minnesota United FC Actif 119 / 122 40% 2 07.11.2026 -
Gabriel Pirani San Diego Football Club Actif 137 / 120 40% 1 31.10.2026 -
Marco Pašalić Orlando City Actif 129 / 135 40% 1 31.10.2026 -
Riqui Puig LA Galaxy Actif 120 / 138 40% 2 30.10.2026 -
Diego Luna Real Salt Lake Actif 139 / 134 40% 1 28.10.2026 -
Bénie Traoré New York City Actif 111 / 114 40% 4 19.10.2026 -
Marcelo Allende Mamelodi Sundowns Actif 113 / 126 40% 1 18.10.2026 -
Juan Manuel Sanabria Real Salt Lake Actif 116 / 133 40% 1 15.10.2026 -
Shea Charles Southampton Actif 122 / 132 40% 1 14.10.2026 -
Telasco Segovia Inter Miami CF Actif 128 / 131 40% 1 11.10.2026 -
Martín Ojeda Orlando City Actif 137 / 122 40% 1 10.10.2026 -
Andrés Herrera Columbus Crew Actif 133 / 129 40% 1 08.10.2026 -
Kimito Nono Sanfrecce Hiroshima Actif 122 / 129 40% 1 07.10.2026 -
Michael Kayode Brentford Actif 131 / 148 40% 1 07.10.2026 -
Diego Lainez Tigres Actif 135 / 119 40% 2 30.09.2026 -
Antony Portland Timbers Actif 141 / 140 40% 2 26.09.2026 -
Rui Modesto Vancouver Whitecaps Actif 111 / 128 40% 2 22.09.2026 -
Griffin Yow New England Revolution Actif 115 / 121 40% 1 22.09.2026 -
Dara O'Shea Ipswich Town Actif 138 / 131 40% 1 19.09.2026 -
Alan Lescano Argentinos Juniors Actif 129 / 138 40% 1 19.09.2026 -
Theo Corbeanu Toronto FC Actif 114 / 128 40% 1 16.09.2026 -
Nathan Collins Brentford Actif 154 / 136 40% 1 16.09.2026 -
Víctor Guzmán Monterrey Actif 122 / 129 40% 1 16.09.2026 -
Elliot Anderson Manchester City Actif 152 / 159 40% 1 14.09.2026 -
David Schnegg Charlotte Football Club Actif 116 / 123 40% 1 12.09.2026 -
Djordje Mihailović Toronto FC Actif 132 / 133 40% 1 12.09.2026 -
James Garner Everton Actif 149 / 147 40% 1 09.09.2026 -
Paxten Aaronson Colorado Rapids Actif 126 / 134 40% 1 08.09.2026 -
Anton Stach Leeds United Actif 162 / 141 40% 1 08.09.2026 -
Facundo Mura Inter Miami CF Actif 114 / 119 40% 1 07.09.2026 -
Darren Yapi Colorado Rapids Actif 100 / 108 40% 1 03.08.2026 -
Matías Fernández-Pardo Newcastle United Actif 122 / 150 40% 1 01.08.2026 Plus d'infos